createdAt,value
2022-11-27T00:01:51.403Z,97787.63
2022-11-27T00:04:48.239Z,97791.97
2022-11-27T00:07:45.240Z,97790.72
2022-11-27T00:10:42.094Z,97784.72
2022-11-27T00:13:39.334Z,97773.53
2022-11-27T00:16:36.167Z,97771.09
2022-11-27T00:19:33.037Z,97765.03
2022-11-27T00:22:29.894Z,97759.59
2022-11-27T00:25:26.800Z,97760.84
2022-11-27T00:28:23.696Z,97756.84
2022-11-27T00:31:32.802Z,97757.06
2022-11-27T00:34:29.691Z,97761.13
2022-11-27T00:37:26.543Z,97766.56
2022-11-27T00:40:23.388Z,97764.16
2022-11-27T00:43:20.225Z,97759.38
2022-11-27T00:46:28.151Z,97760.13
2022-11-27T00:49:25.879Z,97765.59
2022-11-27T00:52:22.680Z,97765.16
2022-11-27T00:55:20.007Z,97777.22
2022-11-27T00:58:16.840Z,97774.25
2022-11-27T01:01:21.675Z,97766.75
2022-11-27T01:04:18.743Z,97775.47
2022-11-27T01:07:15.860Z,97765.66
2022-11-27T01:10:12.832Z,97755.78
2022-11-27T01:13:09.635Z,97756.66
2022-11-27T01:16:22.983Z,97739.13
2022-11-27T01:19:19.944Z,97744.00
2022-11-27T01:22:16.748Z,97741.38
2022-11-27T01:25:13.565Z,97735.94
2022-11-27T01:28:10.412Z,97732.97
2022-11-27T01:31:17.975Z,97742.72
2022-11-27T01:34:18.217Z,97735.88
2022-11-27T01:37:15.029Z,97728.75
2022-11-27T01:40:12.391Z,97728.06
2022-11-27T01:43:15.403Z,97722.66
2022-11-27T01:46:38.219Z,97726.81
2022-11-27T01:49:47.513Z,97727.59
2022-11-27T01:52:50.362Z,97719.97
2022-11-27T01:55:59.144Z,97717.53
2022-11-27T01:58:58.248Z,97721.78
2022-11-27T02:01:55.152Z,97728.63
2022-11-27T02:04:53.647Z,97723.06
2022-11-27T02:07:52.436Z,97715.38
2022-11-27T02:11:24.277Z,97711.84
2022-11-27T02:15:08.868Z,97708.03
2022-11-27T02:18:25.124Z,97701.22
2022-11-27T02:21:57.507Z,97710.16
2022-11-27T02:25:13.213Z,97716.75
2022-11-27T02:28:35.045Z,97707.72
2022-11-27T02:32:12.173Z,97709.59
2022-11-27T02:35:30.196Z,97706.69
2022-11-27T02:38:34.611Z,97705.59
2022-11-27T02:41:44.581Z,97694.91
2022-11-27T02:44:51.173Z,97695.78
2022-11-27T02:47:50.359Z,97690.72
2022-11-27T02:50:49.014Z,97694.63
2022-11-27T02:53:59.124Z,97697.03
2022-11-27T02:57:00.603Z,97686.97
2022-11-27T02:59:59.337Z,97690.56
2022-11-27T03:03:03.277Z,97680.81
2022-11-27T03:06:09.782Z,97682.78
2022-11-27T03:09:23.130Z,97685.88
2022-11-27T03:12:20.546Z,97679.22
2022-11-27T03:15:17.787Z,97680.47
2022-11-27T03:18:29.980Z,97679.28
2022-11-27T03:21:40.885Z,97670.34
2022-11-27T03:24:38.543Z,97665.22
2022-11-27T03:27:50.357Z,97665.34
2022-11-27T03:30:47.407Z,97658.66
2022-11-27T03:33:44.770Z,97651.56
2022-11-27T03:36:41.835Z,97660.94
2022-11-27T03:39:39.257Z,97663.81
2022-11-27T03:43:09.749Z,97659.56
2022-11-27T03:46:26.896Z,97668.50
2022-11-27T03:50:09.724Z,97659.63
2022-11-27T03:54:02.052Z,97650.75
2022-11-27T03:57:25.719Z,97649.97
2022-11-27T04:00:23.542Z,97645.69
2022-11-27T04:03:27.734Z,97647.44
2022-11-27T04:06:24.597Z,97637.34
2022-11-27T04:09:21.443Z,97643.94
2022-11-27T04:12:18.275Z,97648.56
2022-11-27T04:15:15.216Z,97646.06
2022-11-27T04:18:12.102Z,97651.75
2022-11-27T04:21:09.146Z,97650.81
2022-11-27T04:24:06.202Z,97643.41
2022-11-27T04:27:03.051Z,97641.28
2022-11-27T04:29:59.910Z,97659.03
2022-11-27T04:32:56.726Z,97652.81
2022-11-27T04:35:54.151Z,97661.91
2022-11-27T04:38:51.009Z,97656.22
2022-11-27T04:41:47.992Z,97658.88
2022-11-27T04:44:44.839Z,97651.44
2022-11-27T04:47:41.744Z,97651.31
2022-11-27T04:50:38.642Z,97652.19
2022-11-27T04:53:35.476Z,97653.91
2022-11-27T04:56:32.305Z,97654.72
2022-11-27T04:59:29.457Z,97648.38
2022-11-27T05:02:26.497Z,97649.88
2022-11-27T05:05:23.470Z,97639.16
2022-11-27T05:08:20.305Z,97655.31
2022-11-27T05:11:17.885Z,97650.75
2022-11-27T05:14:18.190Z,97654.25
2022-11-27T05:17:15.309Z,97645.75
2022-11-27T05:20:12.275Z,97648.41
2022-11-27T05:23:09.120Z,97650.81
2022-11-27T05:26:06.032Z,97640.03
2022-11-27T05:29:03.746Z,97640.66
2022-11-27T05:32:00.582Z,97643.06
2022-11-27T05:34:57.447Z,97642.38
2022-11-27T05:37:54.276Z,97635.28
2022-11-27T05:40:51.091Z,97639.09
2022-11-27T05:43:48.505Z,97628.31
2022-11-27T05:46:45.719Z,97633.94
2022-11-27T05:49:42.710Z,97640.03
2022-11-27T05:52:39.861Z,97641.59
2022-11-27T05:55:36.753Z,97640.31
2022-11-27T05:58:35.251Z,97644.72
2022-11-27T06:01:32.300Z,97629.97
2022-11-27T06:04:29.210Z,97628.16
2022-11-27T06:07:26.225Z,97625.59
2022-11-27T06:10:23.178Z,97622.44
2022-11-27T06:13:20.055Z,97611.06
2022-11-27T06:16:21.109Z,97606.78
2022-11-27T06:19:18.088Z,97612.06
2022-11-27T06:22:14.948Z,97604.84
2022-11-27T06:25:11.873Z,97597.28
2022-11-27T06:28:08.793Z,97601.25
2022-11-27T06:31:17.265Z,97600.66
2022-11-27T06:34:14.964Z,97599.28
2022-11-27T06:37:13.370Z,97589.34
2022-11-27T06:40:11.133Z,97589.81
2022-11-27T06:43:07.992Z,97580.28
2022-11-27T06:46:07.502Z,97586.38
2022-11-27T06:49:04.570Z,97583.16
2022-11-27T06:52:02.170Z,97573.53
2022-11-27T06:54:58.980Z,97576.69
2022-11-27T06:57:55.826Z,97576.38
2022-11-27T07:01:01.947Z,97580.22
2022-11-27T07:03:59.011Z,97570.06
2022-11-27T07:06:55.842Z,97575.72
2022-11-27T07:09:52.660Z,97570.22
2022-11-27T07:12:49.499Z,97560.63
2022-11-27T07:15:46.478Z,97566.06
2022-11-27T07:18:50.743Z,97560.84
2022-11-27T07:21:47.612Z,97556.88
2022-11-27T07:24:44.544Z,97557.97
2022-11-27T07:27:41.522Z,97561.22
2022-11-27T07:30:38.415Z,97561.50
2022-11-27T07:33:35.257Z,97557.56
2022-11-27T07:36:32.130Z,97562.09
2022-11-27T07:40:00.306Z,97554.19
2022-11-27T07:42:45.994Z,97553.94
2022-11-27T07:45:42.867Z,97557.41
2022-11-27T07:48:39.757Z,97553.03
2022-11-27T07:51:36.565Z,97549.78
2022-11-27T07:54:34.563Z,97545.47
2022-11-27T07:57:31.632Z,97546.19
2022-11-27T08:00:28.535Z,97547.00
2022-11-27T08:03:26.273Z,97542.13
2022-11-27T08:06:26.329Z,97542.22
2022-11-27T08:09:23.194Z,97529.03
2022-11-27T08:12:20.096Z,97536.84
2022-11-27T08:15:17.022Z,97538.31
2022-11-27T08:18:13.904Z,97532.03
2022-11-27T08:21:11.024Z,97531.44
2022-11-27T08:24:09.344Z,97524.31
2022-11-27T08:27:06.565Z,97530.13
2022-11-27T08:30:05.953Z,97526.69
2022-11-27T08:33:02.822Z,97526.47
2022-11-27T08:35:59.943Z,97528.41
2022-11-27T08:38:57.152Z,97529.59
2022-11-27T08:41:54.760Z,97525.22
2022-11-27T08:44:51.634Z,97520.31
2022-11-27T08:47:48.511Z,97517.75
2022-11-27T08:50:45.794Z,97524.56
2022-11-27T08:53:45.521Z,97521.50
2022-11-27T08:56:42.534Z,97523.13
2022-11-27T08:59:39.378Z,97515.28
2022-11-27T09:02:36.369Z,97512.00
2022-11-27T09:05:33.847Z,97521.84
2022-11-27T09:08:30.688Z,97522.75
2022-11-27T09:11:29.294Z,97518.25
2022-11-27T09:14:26.557Z,97525.16
2022-11-27T09:17:23.796Z,97526.97
2022-11-27T09:20:20.725Z,97531.81
2022-11-27T09:23:17.761Z,97521.84
2022-11-27T09:26:17.158Z,97519.56
2022-11-27T09:29:14.112Z,97521.72
2022-11-27T09:32:11.013Z,97521.63
2022-11-27T09:35:08.611Z,97516.66
2022-11-27T09:38:05.564Z,97516.66
2022-11-27T09:41:46.254Z,97519.59
2022-11-27T09:44:49.854Z,97505.00
2022-11-27T09:48:04.802Z,97496.59
2022-11-27T09:51:06.911Z,97492.03
2022-11-27T09:54:22.514Z,97505.16
2022-11-27T09:57:32.899Z,97492.72
2022-11-27T10:00:29.841Z,97482.97
2022-11-27T10:03:28.593Z,97486.06
2022-11-27T10:07:14.921Z,97470.22
2022-11-27T10:10:38.891Z,97477.28
2022-11-27T10:13:55.574Z,97477.28
2022-11-27T10:17:11.799Z,97469.47
2022-11-27T10:20:43.658Z,97454.50
2022-11-27T10:24:06.711Z,97443.66
2022-11-27T10:27:22.613Z,97432.81
2022-11-27T10:30:21.519Z,97414.09
2022-11-27T10:33:25.827Z,97418.09
2022-11-27T10:36:43.501Z,97411.94
2022-11-27T10:39:48.716Z,97393.53
2022-11-27T10:43:14.383Z,97396.31
2022-11-27T10:46:38.683Z,97389.41
2022-11-27T10:49:41.050Z,97393.41
2022-11-27T10:53:06.298Z,97393.41
2022-11-27T10:56:12.475Z,97384.25
2022-11-27T10:59:32.889Z,97392.06
2022-11-27T11:02:34.990Z,97391.38
2022-11-27T11:09:16.048Z,97379.66
2022-11-27T11:12:21.862Z,97370.81
2022-11-27T11:15:19.308Z,97369.28
2022-11-27T11:18:29.401Z,97368.25
2022-11-27T11:21:38.402Z,97355.63
2022-11-27T11:24:40.353Z,97357.56
2022-11-27T11:27:43.153Z,97356.19
2022-11-27T11:30:42.088Z,97352.63
2022-11-27T11:33:56.491Z,97348.75
2022-11-27T11:37:27.992Z,97353.97
2022-11-27T11:40:35.847Z,97352.25
2022-11-27T11:43:36.755Z,97355.28
2022-11-27T11:46:36.759Z,97362.13
2022-11-27T11:49:36.038Z,97357.00
2022-11-27T11:52:54.420Z,97351.94
2022-11-27T11:56:26.023Z,97340.50
2022-11-27T11:59:42.092Z,97345.88
2022-11-27T12:02:47.685Z,97346.13
2022-11-27T12:05:50.681Z,97344.41
2022-11-27T12:09:18.025Z,97333.06
2022-11-27T12:12:47.232Z,97328.47
2022-11-27T12:15:58.361Z,97325.16
2022-11-27T12:19:45.316Z,97308.47
2022-11-27T12:22:57.070Z,97296.31
2022-11-27T12:26:20.869Z,97302.09
2022-11-27T12:29:40.095Z,97291.06
2022-11-27T12:33:30.595Z,97283.97
2022-11-27T12:37:21.781Z,97281.28
2022-11-27T12:40:22.780Z,97283.72
2022-11-27T12:43:25.163Z,97277.63
2022-11-27T12:46:33.828Z,97263.91
2022-11-27T12:49:50.388Z,97256.69
2022-11-27T12:53:21.752Z,97265.38
2022-11-27T12:56:33.132Z,97259.56
2022-11-27T12:59:58.447Z,97251.50
2022-11-27T13:03:48.481Z,97237.84
2022-11-27T13:07:10.121Z,97244.72
2022-11-27T13:10:43.440Z,97235.44
2022-11-27T13:13:50.049Z,97231.50
2022-11-27T13:16:54.171Z,97227.19
2022-11-27T13:19:51.734Z,97222.47
2022-11-27T13:22:49.868Z,97228.84
2022-11-27T13:25:51.808Z,97222.19
2022-11-27T13:28:57.649Z,97209.13
2022-11-27T13:31:59.477Z,97205.03
2022-11-27T13:35:02.506Z,97209.38
2022-11-27T13:38:20.331Z,97211.22
2022-11-27T13:41:43.748Z,97195.03
2022-11-27T13:44:45.191Z,97202.78
2022-11-27T13:47:43.864Z,97202.78
2022-11-27T13:50:46.103Z,97198.06
2022-11-27T13:53:42.966Z,97188.03
2022-11-27T13:56:40.995Z,97187.22
2022-11-27T13:59:39.521Z,97185.44
2022-11-27T14:02:54.680Z,97173.63
2022-11-27T14:05:51.996Z,97181.56
2022-11-27T14:09:01.269Z,97186.28
2022-11-27T14:11:58.379Z,97200.81
2022-11-27T14:15:01.974Z,97186.44
2022-11-27T14:18:18.559Z,97182.06
2022-11-27T14:21:35.743Z,97179.34
2022-11-27T14:24:47.092Z,97179.59
2022-11-27T14:27:44.283Z,97180.34
2022-11-27T14:30:52.432Z,97171.56
2022-11-27T14:34:13.585Z,97170.75
2022-11-27T14:37:07.032Z,97171.81
2022-11-27T14:40:15.075Z,97160.13
2022-11-27T14:43:18.603Z,97161.13
2022-11-27T14:46:21.941Z,97160.84
2022-11-27T14:49:21.715Z,97157.38
2022-11-27T14:52:18.836Z,97155.69
2022-11-27T14:55:17.302Z,97154.03
2022-11-27T14:58:22.154Z,97160.16
2022-11-27T15:01:32.533Z,97149.56
2022-11-27T15:04:38.562Z,97141.69
2022-11-27T15:07:45.343Z,97131.34
2022-11-27T15:10:45.592Z,97129.91
2022-11-27T15:13:42.791Z,97128.16
2022-11-27T15:16:46.756Z,97137.78
2022-11-27T15:19:43.997Z,97126.13
2022-11-27T15:22:52.756Z,97129.94
2022-11-27T15:26:08.344Z,97125.59
2022-11-27T15:29:37.926Z,97121.09
2022-11-27T15:32:51.564Z,97112.03
2022-11-27T15:35:52.637Z,97109.94
2022-11-27T15:38:51.668Z,97102.19
2022-11-27T15:42:04.306Z,97100.31
2022-11-27T15:45:01.308Z,97085.63
2022-11-27T15:48:00.809Z,97085.88
2022-11-27T15:50:57.741Z,97079.31
2022-11-27T15:53:54.595Z,97075.97
2022-11-27T15:56:52.002Z,97067.28
2022-11-27T15:59:48.846Z,97061.53
2022-11-27T16:02:45.725Z,97057.06
2022-11-27T16:05:42.672Z,97057.75
2022-11-27T16:08:39.627Z,97043.34
2022-11-27T16:11:36.534Z,97037.81
2022-11-27T16:14:33.417Z,97027.72
2022-11-27T16:17:30.241Z,97021.41
2022-11-27T16:20:27.720Z,97014.13
2022-11-27T16:23:24.596Z,97006.44
2022-11-27T16:26:21.412Z,97011.16
2022-11-27T16:29:18.373Z,97004.97
2022-11-27T16:32:15.266Z,97009.47
2022-11-27T16:35:12.400Z,97014.19
2022-11-27T16:38:09.225Z,97015.78
2022-11-27T16:41:09.763Z,97014.72
2022-11-27T16:44:13.136Z,97028.28
2022-11-27T16:47:09.988Z,97032.28
2022-11-27T16:50:07.620Z,97029.63
2022-11-27T16:53:04.459Z,97032.97
2022-11-27T16:56:01.278Z,97028.09
2022-11-27T16:59:02.994Z,97037.03
2022-11-27T17:02:03.277Z,97034.28
2022-11-27T17:05:00.237Z,97022.34
2022-11-27T17:07:57.195Z,97018.88
2022-11-27T17:10:54.138Z,97014.00
2022-11-27T17:13:53.932Z,97007.75
2022-11-27T17:16:50.989Z,97004.06
2022-11-27T17:19:49.181Z,97003.69
2022-11-27T17:22:47.971Z,97006.75
2022-11-27T17:25:45.306Z,96997.28
2022-11-27T17:28:42.185Z,96989.44
2022-11-27T17:31:39.798Z,96988.22
2022-11-27T17:34:36.721Z,96991.50
2022-11-27T17:37:33.606Z,96992.31
2022-11-27T17:40:33.777Z,96992.72
2022-11-27T17:43:30.635Z,96998.59
2022-11-27T17:46:29.216Z,96995.69
2022-11-27T17:49:26.728Z,96996.56
2022-11-27T17:52:23.553Z,96997.44
2022-11-27T17:55:20.421Z,96982.47
2022-11-27T17:58:17.318Z,96972.03
2022-11-27T18:01:18.687Z,96966.69
2022-11-27T18:04:15.604Z,96958.94
2022-11-27T18:07:12.720Z,96962.84
2022-11-27T18:10:10.407Z,96945.56
2022-11-27T18:13:07.376Z,96944.44
2022-11-27T18:16:07.470Z,96947.16
2022-11-27T18:19:10.425Z,96929.88
2022-11-27T18:22:08.944Z,96917.94
2022-11-27T18:25:06.264Z,96911.38
2022-11-27T18:28:03.884Z,96907.69
2022-11-27T18:31:17.303Z,96903.44
2022-11-27T18:34:14.223Z,96899.59
2022-11-27T18:37:12.834Z,96898.41
2022-11-27T18:40:10.315Z,96889.69
2022-11-27T18:43:07.440Z,96887.69
2022-11-27T18:46:05.448Z,96898.81
2022-11-27T18:49:02.385Z,96897.75
2022-11-27T18:51:59.201Z,96888.31
2022-11-27T18:54:56.057Z,96889.03
2022-11-27T18:57:53.618Z,96882.47
2022-11-27T19:00:51.389Z,96877.75
2022-11-27T19:03:48.586Z,96874.03
2022-11-27T19:06:45.449Z,96879.97
2022-11-27T19:09:42.421Z,96866.56
2022-11-27T19:12:39.482Z,96866.88
2022-11-27T19:15:40.050Z,96860.38
2022-11-27T19:18:37.224Z,96859.25
2022-11-27T19:21:34.972Z,96864.47
2022-11-27T19:24:31.814Z,96852.75
2022-11-27T19:27:28.644Z,96845.72
2022-11-27T19:30:26.692Z,96831.75
2022-11-27T19:33:26.032Z,96828.16
2022-11-27T19:36:23.494Z,96842.72
2022-11-27T19:39:20.451Z,96836.47
2022-11-27T19:42:17.333Z,96849.31
2022-11-27T19:45:14.170Z,96846.03
2022-11-27T19:48:10.985Z,96850.13
2022-11-27T19:51:08.047Z,96847.41
2022-11-27T19:54:09.898Z,96848.13
2022-11-27T19:57:07.486Z,96846.88
2022-11-27T20:00:08.314Z,96846.38
2022-11-27T20:03:05.175Z,96842.94
2022-11-27T20:06:24.546Z,96839.56
2022-11-27T20:09:21.664Z,96830.97
2022-11-27T20:12:18.694Z,96827.72
2022-11-27T20:15:16.916Z,96820.81
2022-11-27T20:18:13.741Z,96817.75
2022-11-27T20:21:18.020Z,96823.25
2022-11-27T20:24:15.045Z,96826.53
2022-11-27T20:27:11.869Z,96821.06
2022-11-27T20:30:09.277Z,96834.22
2022-11-27T20:33:07.939Z,96824.13
2022-11-27T20:36:11.055Z,96816.03
2022-11-27T20:39:07.970Z,96819.31
2022-11-27T20:42:04.961Z,96812.97
2022-11-27T20:45:05.091Z,96803.75
2022-11-27T20:48:01.950Z,96801.13
2022-11-27T20:51:13.752Z,96794.91
2022-11-27T20:54:11.995Z,96790.00
2022-11-27T20:57:13.964Z,96791.72
2022-11-27T21:00:11.480Z,96788.16
2022-11-27T21:03:08.366Z,96792.91
2022-11-27T21:06:05.625Z,96787.84
2022-11-27T21:09:07.144Z,96791.53
2022-11-27T21:12:04.778Z,96796.31
2022-11-27T21:15:01.647Z,96789.38
2022-11-27T21:17:58.655Z,96786.66
2022-11-27T21:20:55.486Z,96785.75
2022-11-27T21:23:53.418Z,96768.25
2022-11-27T21:26:50.369Z,96756.47
2022-11-27T21:29:47.239Z,96734.31
2022-11-27T21:32:44.548Z,96709.19
2022-11-27T21:35:41.827Z,96713.25
2022-11-27T21:38:39.322Z,96711.88
2022-11-27T21:41:36.689Z,96704.28
2022-11-27T21:44:33.723Z,96707.34
2022-11-27T21:47:30.599Z,96697.34
2022-11-27T21:50:27.895Z,96695.81
2022-11-27T21:53:24.767Z,96700.94
2022-11-27T21:56:24.645Z,96691.66
2022-11-27T21:59:21.846Z,96697.78
2022-11-27T22:02:18.861Z,96692.25
2022-11-27T22:05:15.825Z,96682.06
2022-11-27T22:08:12.723Z,96683.59
2022-11-27T22:11:14.042Z,96688.94
2022-11-27T22:14:10.973Z,96688.94
2022-11-27T22:17:08.010Z,96686.41
2022-11-27T22:20:05.879Z,96691.28
2022-11-27T22:23:02.802Z,96691.31
2022-11-27T22:26:14.757Z,96695.25
2022-11-27T22:29:11.621Z,96702.66
2022-11-27T22:32:08.535Z,96694.19
2022-11-27T22:35:05.906Z,96687.59
2022-11-27T22:38:02.865Z,96688.13
2022-11-27T22:40:59.749Z,96692.38
2022-11-27T22:43:58.782Z,96683.34
2022-11-27T22:46:55.994Z,96677.75
2022-11-27T22:49:52.916Z,96666.63
2022-11-27T22:52:51.100Z,96684.19
2022-11-27T22:55:50.464Z,96692.13
2022-11-27T22:58:47.471Z,96683.22
2022-11-27T23:01:44.634Z,96682.41
2022-11-27T23:04:41.861Z,96681.00
2022-11-27T23:07:39.083Z,96694.03
2022-11-27T23:10:37.232Z,96683.16
2022-11-27T23:13:34.373Z,96683.22
2022-11-27T23:16:31.288Z,96690.34
2022-11-27T23:19:28.227Z,96677.78
2022-11-27T23:22:25.125Z,96673.69
2022-11-27T23:25:22.012Z,96684.00
2022-11-27T23:28:18.927Z,96661.00
2022-11-27T23:31:30.391Z,96654.84
2022-11-27T23:34:27.931Z,96657.66
2022-11-27T23:37:24.880Z,96666.81
2022-11-27T23:40:22.132Z,96663.06
2022-11-27T23:43:19.034Z,96653.47
2022-11-27T23:46:18.627Z,96650.34
2022-11-27T23:49:15.630Z,96633.50
2022-11-27T23:52:17.001Z,96628.22
2022-11-27T23:55:14.255Z,96625.72
2022-11-27T23:58:11.123Z,96614.88
